sensor_id;sensor_type;location;lat;lon;timestamp;temperature;humidity
19168;DHT22;9716;53.114;18.040;2023-05-07T00:02:02;7.00;99.90
19168;DHT22;9716;53.114;18.040;2023-05-07T00:04:31;7.00;99.90
19168;DHT22;9716;53.114;18.040;2023-05-07T00:07:04;6.90;99.90
19168;DHT22;9716;53.114;18.040;2023-05-07T00:09:33;6.80;99.90
19168;DHT22;9716;53.114;18.040;2023-05-07T00:12:03;6.80;99.90
19168;DHT22;9716;53.114;18.040;2023-05-07T00:14:31;6.70;99.90
19168;DHT22;9716;53.114;18.040;2023-05-07T00:16:59;6.70;99.90
19168;DHT22;9716;53.114;18.040;2023-05-07T00:19:28;6.60;99.90
19168;DHT22;9716;53.114;18.040;2023-05-07T00:21:56;6.60;99.90
19168;DHT22;9716;53.114;18.040;2023-05-07T00:24:25;6.50;99.90
19168;DHT22;9716;53.114;18.040;2023-05-07T00:26:53;6.50;99.90
19168;DHT22;9716;53.114;18.040;2023-05-07T00:29:26;6.40;99.90
19168;DHT22;9716;53.114;18.040;2023-05-07T00:31:54;6.40;99.90
19168;DHT22;9716;53.114;18.040;2023-05-07T00:34:23;6.30;99.90
19168;DHT22;9716;53.114;18.040;2023-05-07T00:36:52;6.30;99.90
19168;DHT22;9716;53.114;18.040;2023-05-07T00:39:20;6.20;99.90
19168;DHT22;9716;53.114;18.040;2023-05-07T00:41:48;6.10;99.90
19168;DHT22;9716;53.114;18.040;2023-05-07T00:44:18;6.10;99.90
19168;DHT22;9716;53.114;18.040;2023-05-07T00:46:48;6.00;99.90
19168;DHT22;9716;53.114;18.040;2023-05-07T00:49:18;6.00;99.90
19168;DHT22;9716;53.114;18.040;2023-05-07T00:51:47;6.00;99.90
19168;DHT22;9716;53.114;18.040;2023-05-07T00:54:15;5.90;99.90
19168;DHT22;9716;53.114;18.040;2023-05-07T00:56:44;5.90;99.90
19168;DHT22;9716;53.114;18.040;2023-05-07T00:59:13;5.80;99.90
19168;DHT22;9716;53.114;18.040;2023-05-07T01:01:41;5.70;99.90
19168;DHT22;9716;53.114;18.040;2023-05-07T01:04:11;5.70;99.90
19168;DHT22;9716;53.114;18.040;2023-05-07T01:06:40;5.70;99.90
19168;DHT22;9716;53.114;18.040;2023-05-07T01:09:10;5.60;99.90
19168;DHT22;9716;53.114;18.040;2023-05-07T01:11:39;5.60;99.90
19168;DHT22;9716;53.114;18.040;2023-05-07T01:14:09;5.50;99.90
19168;DHT22;9716;53.114;18.040;2023-05-07T01:16:37;5.50;99.90
19168;DHT22;9716;53.114;18.040;2023-05-07T01:19:11;5.40;99.90
19168;DHT22;9716;53.114;18.040;2023-05-07T01:21:44;5.40;99.90
19168;DHT22;9716;53.114;18.040;2023-05-07T01:24:15;5.40;99.90
19168;DHT22;9716;53.114;18.040;2023-05-07T01:26:43;5.30;99.90
19168;DHT22;9716;53.114;18.040;2023-05-07T01:29:12;5.20;99.90
19168;DHT22;9716;53.114;18.040;2023-05-07T01:31:42;5.20;99.90
19168;DHT22;9716;53.114;18.040;2023-05-07T01:34:13;5.20;99.90
19168;DHT22;9716;53.114;18.040;2023-05-07T01:36:43;5.10;99.90
19168;DHT22;9716;53.114;18.040;2023-05-07T01:39:14;5.10;99.90
19168;DHT22;9716;53.114;18.040;2023-05-07T01:41:43;5.10;99.90
19168;DHT22;9716;53.114;18.040;2023-05-07T01:44:12;5.00;99.90
19168;DHT22;9716;53.114;18.040;2023-05-07T01:46:41;5.00;99.90
19168;DHT22;9716;53.114;18.040;2023-05-07T01:49:10;5.00;99.90
19168;DHT22;9716;53.114;18.040;2023-05-07T01:51:39;4.90;99.90
19168;DHT22;9716;53.114;18.040;2023-05-07T01:54:08;4.90;99.90
19168;DHT22;9716;53.114;18.040;2023-05-07T01:56:38;4.90;99.90
19168;DHT22;9716;53.114;18.040;2023-05-07T01:59:06;4.80;99.90
19168;DHT22;9716;53.114;18.040;2023-05-07T02:01:34;4.80;99.90
19168;DHT22;9716;53.114;18.040;2023-05-07T02:04:03;4.80;99.90
19168;DHT22;9716;53.114;18.040;2023-05-07T02:06:32;4.70;99.90
19168;DHT22;9716;53.114;18.040;2023-05-07T02:09:00;4.70;99.90
19168;DHT22;9716;53.114;18.040;2023-05-07T02:11:29;4.70;99.90
19168;DHT22;9716;53.114;18.040;2023-05-07T02:13:59;4.60;99.90
19168;DHT22;9716;53.114;18.040;2023-05-07T02:16:27;4.60;99.90
19168;DHT22;9716;53.114;18.040;2023-05-07T02:18:56;4.60;99.90
19168;DHT22;9716;53.114;18.040;2023-05-07T02:21:25;4.50;99.90
19168;DHT22;9716;53.114;18.040;2023-05-07T02:23:56;4.50;99.90
19168;DHT22;9716;53.114;18.040;2023-05-07T02:26:24;4.50;99.90
19168;DHT22;9716;53.114;18.040;2023-05-07T02:28:54;4.50;99.90
19168;DHT22;9716;53.114;18.040;2023-05-07T02:31:23;4.40;99.90
19168;DHT22;9716;53.114;18.040;2023-05-07T02:33:51;4.40;99.90
19168;DHT22;9716;53.114;18.040;2023-05-07T02:36:20;4.40;99.90
19168;DHT22;9716;53.114;18.040;2023-05-07T02:38:48;4.40;99.90
19168;DHT22;9716;53.114;18.040;2023-05-07T02:41:16;4.40;99.90
19168;DHT22;9716;53.114;18.040;2023-05-07T02:43:45;4.30;99.90
19168;DHT22;9716;53.114;18.040;2023-05-07T02:46:13;4.30;99.90
19168;DHT22;9716;53.114;18.040;2023-05-07T02:48:44;4.30;99.90
19168;DHT22;9716;53.114;18.040;2023-05-07T02:51:12;4.30;99.90
19168;DHT22;9716;53.114;18.040;2023-05-07T02:53:41;4.30;99.90
19168;DHT22;9716;53.114;18.040;2023-05-07T02:56:09;4.20;99.90
19168;DHT22;9716;53.114;18.040;2023-05-07T02:58:38;4.20;99.90
19168;DHT22;9716;53.114;18.040;2023-05-07T03:01:07;4.20;99.90
19168;DHT22;9716;53.114;18.040;2023-05-07T03:03:35;4.20;99.90
19168;DHT22;9716;53.114;18.040;2023-05-07T03:06:05;4.20;99.90
19168;DHT22;9716;53.114;18.040;2023-05-07T03:08:34;4.20;99.90
19168;DHT22;9716;53.114;18.040;2023-05-07T03:11:03;4.20;99.90
19168;DHT22;9716;53.114;18.040;2023-05-07T03:13:32;4.20;99.90
19168;DHT22;9716;53.114;18.040;2023-05-07T03:16:00;4.20;99.90
19168;DHT22;9716;53.114;18.040;2023-05-07T03:18:29;4.20;99.90
19168;DHT22;9716;53.114;18.040;2023-05-07T03:20:57;4.20;99.90
19168;DHT22;9716;53.114;18.040;2023-05-07T03:23:27;4.20;99.90
19168;DHT22;9716;53.114;18.040;2023-05-07T03:25:56;4.20;99.90
19168;DHT22;9716;53.114;18.040;2023-05-07T03:28:24;4.30;99.90
19168;DHT22;9716;53.114;18.040;2023-05-07T03:30:53;4.30;99.90
19168;DHT22;9716;53.114;18.040;2023-05-07T03:33:22;4.40;99.90
19168;DHT22;9716;53.114;18.040;2023-05-07T03:35:50;4.40;99.90
19168;DHT22;9716;53.114;18.040;2023-05-07T03:38:19;4.50;99.90
19168;DHT22;9716;53.114;18.040;2023-05-07T03:40:49;4.60;99.90
19168;DHT22;9716;53.114;18.040;2023-05-07T03:43:17;4.70;99.90
19168;DHT22;9716;53.114;18.040;2023-05-07T03:45:46;4.80;99.90
19168;DHT22;9716;53.114;18.040;2023-05-07T03:48:14;4.90;99.90
19168;DHT22;9716;53.114;18.040;2023-05-07T03:50:43;5.00;99.90
19168;DHT22;9716;53.114;18.040;2023-05-07T03:53:11;5.20;99.90
19168;DHT22;9716;53.114;18.040;2023-05-07T03:55:40;5.40;99.90
19168;DHT22;9716;53.114;18.040;2023-05-07T03:58:10;5.60;99.90
19168;DHT22;9716;53.114;18.040;2023-05-07T04:00:38;5.80;99.90
19168;DHT22;9716;53.114;18.040;2023-05-07T04:03:08;6.10;99.90
19168;DHT22;9716;53.114;18.040;2023-05-07T04:05:37;6.30;99.90
19168;DHT22;9716;53.114;18.040;2023-05-07T04:08:05;6.60;99.90
19168;DHT22;9716;53.114;18.040;2023-05-07T04:10:34;6.80;99.90
19168;DHT22;9716;53.114;18.040;2023-05-07T04:13:02;7.10;99.90
19168;DHT22;9716;53.114;18.040;2023-05-07T04:15:32;7.30;99.90
19168;DHT22;9716;53.114;18.040;2023-05-07T04:18:01;7.60;99.90
19168;DHT22;9716;53.114;18.040;2023-05-07T04:20:29;7.90;99.90
19168;DHT22;9716;53.114;18.040;2023-05-07T04:22:58;8.30;99.90
19168;DHT22;9716;53.114;18.040;2023-05-07T04:25:26;8.60;99.90
19168;DHT22;9716;53.114;18.040;2023-05-07T04:27:55;8.80;99.90
19168;DHT22;9716;53.114;18.040;2023-05-07T04:30:24;9.20;99.90
19168;DHT22;9716;53.114;18.040;2023-05-07T04:32:54;9.40;99.90
19168;DHT22;9716;53.114;18.040;2023-05-07T04:35:23;9.60;99.90
19168;DHT22;9716;53.114;18.040;2023-05-07T04:37:52;9.80;99.90
19168;DHT22;9716;53.114;18.040;2023-05-07T04:40:20;10.10;99.90
19168;DHT22;9716;53.114;18.040;2023-05-07T04:42:49;10.30;99.90
19168;DHT22;9716;53.114;18.040;2023-05-07T04:45:18;10.50;99.90
19168;DHT22;9716;53.114;18.040;2023-05-07T04:47:46;10.80;99.90
19168;DHT22;9716;53.114;18.040;2023-05-07T04:50:16;11.00;99.90
19168;DHT22;9716;53.114;18.040;2023-05-07T04:52:46;11.30;99.90
19168;DHT22;9716;53.114;18.040;2023-05-07T04:55:14;11.50;99.90
19168;DHT22;9716;53.114;18.040;2023-05-07T04:57:43;11.80;99.90
19168;DHT22;9716;53.114;18.040;2023-05-07T05:00:12;11.90;99.90
19168;DHT22;9716;53.114;18.040;2023-05-07T05:02:41;12.10;99.90
19168;DHT22;9716;53.114;18.040;2023-05-07T05:05:10;12.30;99.90
19168;DHT22;9716;53.114;18.040;2023-05-07T05:07:40;12.50;99.90
19168;DHT22;9716;53.114;18.040;2023-05-07T05:10:08;12.60;99.90
19168;DHT22;9716;53.114;18.040;2023-05-07T05:12:37;12.90;99.90
19168;DHT22;9716;53.114;18.040;2023-05-07T05:15:07;13.00;99.90
19168;DHT22;9716;53.114;18.040;2023-05-07T05:17:36;13.20;99.90
19168;DHT22;9716;53.114;18.040;2023-05-07T05:20:05;13.50;99.90
19168;DHT22;9716;53.114;18.040;2023-05-07T05:22:34;13.60;99.90
19168;DHT22;9716;53.114;18.040;2023-05-07T05:25:05;13.80;99.90
19168;DHT22;9716;53.114;18.040;2023-05-07T05:27:34;14.00;99.90
19168;DHT22;9716;53.114;18.040;2023-05-07T05:30:03;14.30;99.90
19168;DHT22;9716;53.114;18.040;2023-05-07T05:32:32;14.50;99.90
19168;DHT22;9716;53.114;18.040;2023-05-07T05:35:01;14.70;99.90
19168;DHT22;9716;53.114;18.040;2023-05-07T05:37:30;15.00;99.90
19168;DHT22;9716;53.114;18.040;2023-05-07T05:39:58;15.20;99.90
19168;DHT22;9716;53.114;18.040;2023-05-07T05:42:28;15.40;99.90
19168;DHT22;9716;53.114;18.040;2023-05-07T05:44:56;15.60;99.90
19168;DHT22;9716;53.114;18.040;2023-05-07T05:47:25;15.60;99.90
19168;DHT22;9716;53.114;18.040;2023-05-07T05:49:53;15.80;99.90
19168;DHT22;9716;53.114;18.040;2023-05-07T05:52:22;16.00;99.90
19168;DHT22;9716;53.114;18.040;2023-05-07T05:54:50;16.20;99.90
19168;DHT22;9716;53.114;18.040;2023-05-07T05:57:19;16.30;99.90
19168;DHT22;9716;53.114;18.040;2023-05-07T05:59:49;16.50;99.90
19168;DHT22;9716;53.114;18.040;2023-05-07T06:02:18;16.60;99.90
19168;DHT22;9716;53.114;18.040;2023-05-07T06:04:46;16.80;99.90
19168;DHT22;9716;53.114;18.040;2023-05-07T06:07:15;17.00;99.70
19168;DHT22;9716;53.114;18.040;2023-05-07T06:09:43;17.20;99.00
19168;DHT22;9716;53.114;18.040;2023-05-07T06:12:12;17.40;98.40
19168;DHT22;9716;53.114;18.040;2023-05-07T06:14:42;17.50;97.80
19168;DHT22;9716;53.114;18.040;2023-05-07T06:17:12;17.60;97.30
19168;DHT22;9716;53.114;18.040;2023-05-07T06:19:40;17.80;96.80
19168;DHT22;9716;53.114;18.040;2023-05-07T06:22:09;18.00;96.20
19168;DHT22;9716;53.114;18.040;2023-05-07T06:24:37;18.20;95.70
19168;DHT22;9716;53.114;18.040;2023-05-07T06:27:06;18.20;95.10
19168;DHT22;9716;53.114;18.040;2023-05-07T06:29:34;18.20;95.00
19168;DHT22;9716;53.114;18.040;2023-05-07T06:32:06;18.20;94.70
19168;DHT22;9716;53.114;18.040;2023-05-07T06:34:36;18.20;94.30
19168;DHT22;9716;53.114;18.040;2023-05-07T06:37:05;18.20;94.20
19168;DHT22;9716;53.114;18.040;2023-05-07T06:39:34;18.30;93.80
19168;DHT22;9716;53.114;18.040;2023-05-07T06:42:03;18.50;93.50
19168;DHT22;9716;53.114;18.040;2023-05-07T06:44:31;18.60;93.20
19168;DHT22;9716;53.114;18.040;2023-05-07T06:47:00;18.70;92.50
19168;DHT22;9716;53.114;18.040;2023-05-07T06:49:28;18.70;92.30
19168;DHT22;9716;53.114;18.040;2023-05-07T06:51:58;18.70;92.20
19168;DHT22;9716;53.114;18.040;2023-05-07T06:54:26;18.70;92.10
19168;DHT22;9716;53.114;18.040;2023-05-07T06:56:55;18.80;91.80
19168;DHT22;9716;53.114;18.040;2023-05-07T06:59:24;18.90;91.00
19168;DHT22;9716;53.114;18.040;2023-05-07T07:01:52;18.90;90.10
19168;DHT22;9716;53.114;18.040;2023-05-07T07:04:21;18.90;90.20
19168;DHT22;9716;53.114;18.040;2023-05-07T07:06:52;18.80;90.40
19168;DHT22;9716;53.114;18.040;2023-05-07T07:09:22;18.80;90.50
19168;DHT22;9716;53.114;18.040;2023-05-07T07:11:50;18.70;90.30
19168;DHT22;9716;53.114;18.040;2023-05-07T07:14:19;18.70;90.00
19168;DHT22;9716;53.114;18.040;2023-05-07T07:16:47;18.70;89.10
19168;DHT22;9716;53.114;18.040;2023-05-07T07:19:16;18.70;89.30
19168;DHT22;9716;53.114;18.040;2023-05-07T07:21:45;18.90;89.40
19168;DHT22;9716;53.114;18.040;2023-05-07T07:24:14;19.20;88.10
19168;DHT22;9716;53.114;18.040;2023-05-07T07:26:48;19.40;87.50
19168;DHT22;9716;53.114;18.040;2023-05-07T07:29:16;19.60;87.20
19168;DHT22;9716;53.114;18.040;2023-05-07T07:31:47;19.90;85.70
19168;DHT22;9716;53.114;18.040;2023-05-07T07:34:15;20.10;85.40
19168;DHT22;9716;53.114;18.040;2023-05-07T07:36:44;20.30;84.30
19168;DHT22;9716;53.114;18.040;2023-05-07T07:39:13;20.30;84.10
19168;DHT22;9716;53.114;18.040;2023-05-07T07:41:41;20.30;84.20
19168;DHT22;9716;53.114;18.040;2023-05-07T07:44:11;20.20;83.90
19168;DHT22;9716;53.114;18.040;2023-05-07T07:46:42;20.30;83.00
19168;DHT22;9716;53.114;18.040;2023-05-07T07:49:11;20.40;82.30
19168;DHT22;9716;53.114;18.040;2023-05-07T07:51:39;20.40;82.30
19168;DHT22;9716;53.114;18.040;2023-05-07T07:54:08;20.50;81.30
19168;DHT22;9716;53.114;18.040;2023-05-07T07:56:36;20.50;81.30
19168;DHT22;9716;53.114;18.040;2023-05-07T07:59:05;20.50;81.10
19168;DHT22;9716;53.114;18.040;2023-05-07T08:01:34;20.60;80.60
19168;DHT22;9716;53.114;18.040;2023-05-07T08:04:03;20.60;79.20
19168;DHT22;9716;53.114;18.040;2023-05-07T08:06:33;20.70;79.00
19168;DHT22;9716;53.114;18.040;2023-05-07T08:09:01;20.80;77.70
19168;DHT22;9716;53.114;18.040;2023-05-07T08:11:30;20.90;75.10
19168;DHT22;9716;53.114;18.040;2023-05-07T08:13:58;20.80;75.30
19168;DHT22;9716;53.114;18.040;2023-05-07T08:16:28;20.80;74.60
19168;DHT22;9716;53.114;18.040;2023-05-07T08:18:58;20.90;75.00
19168;DHT22;9716;53.114;18.040;2023-05-07T08:21:27;21.00;75.60
19168;DHT22;9716;53.114;18.040;2023-05-07T08:23:55;21.10;73.40
19168;DHT22;9716;53.114;18.040;2023-05-07T08:26:24;21.10;72.10
19168;DHT22;9716;53.114;18.040;2023-05-07T08:28:52;20.90;72.60
19168;DHT22;9716;53.114;18.040;2023-05-07T08:31:21;20.90;72.40
19168;DHT22;9716;53.114;18.040;2023-05-07T08:33:50;20.80;71.40
19168;DHT22;9716;53.114;18.040;2023-05-07T08:36:19;20.80;69.80
19168;DHT22;9716;53.114;18.040;2023-05-07T08:38:48;20.70;69.70
19168;DHT22;9716;53.114;18.040;2023-05-07T08:41:16;20.70;68.80
19168;DHT22;9716;53.114;18.040;2023-05-07T08:43:47;20.60;68.10
19168;DHT22;9716;53.114;18.040;2023-05-07T08:46:17;20.60;69.70
19168;DHT22;9716;53.114;18.040;2023-05-07T08:48:48;20.50;70.30
19168;DHT22;9716;53.114;18.040;2023-05-07T08:51:20;20.50;70.50
19168;DHT22;9716;53.114;18.040;2023-05-07T08:53:49;20.50;71.00
19168;DHT22;9716;53.114;18.040;2023-05-07T08:56:18;20.30;70.90
19168;DHT22;9716;53.114;18.040;2023-05-07T08:58:48;20.30;69.60
19168;DHT22;9716;53.114;18.040;2023-05-07T09:01:17;20.30;69.60
19168;DHT22;9716;53.114;18.040;2023-05-07T09:03:46;20.20;69.50
19168;DHT22;9716;53.114;18.040;2023-05-07T09:06:15;20.10;69.00
19168;DHT22;9716;53.114;18.040;2023-05-07T09:08:49;19.90;69.70
19168;DHT22;9716;53.114;18.040;2023-05-07T09:11:22;19.70;70.10
19168;DHT22;9716;53.114;18.040;2023-05-07T09:13:53;19.40;70.30
19168;DHT22;9716;53.114;18.040;2023-05-07T09:16:25;19.30;71.00
19168;DHT22;9716;53.114;18.040;2023-05-07T09:18:54;19.20;71.10
19168;DHT22;9716;53.114;18.040;2023-05-07T09:21:23;19.20;70.60
19168;DHT22;9716;53.114;18.040;2023-05-07T09:23:54;19.20;71.60
19168;DHT22;9716;53.114;18.040;2023-05-07T09:26:24;19.20;71.60
19168;DHT22;9716;53.114;18.040;2023-05-07T09:28:52;19.30;71.90
19168;DHT22;9716;53.114;18.040;2023-05-07T09:31:21;19.20;70.90
19168;DHT22;9716;53.114;18.040;2023-05-07T09:33:53;19.10;71.10
19168;DHT22;9716;53.114;18.040;2023-05-07T09:36:23;19.00;70.80
19168;DHT22;9716;53.114;18.040;2023-05-07T09:38:52;18.90;71.10
19168;DHT22;9716;53.114;18.040;2023-05-07T09:41:21;18.80;71.60
19168;DHT22;9716;53.114;18.040;2023-05-07T09:43:54;18.80;71.30
19168;DHT22;9716;53.114;18.040;2023-05-07T09:46:27;18.90;71.40
19168;DHT22;9716;53.114;18.040;2023-05-07T09:48:59;19.00;73.30
19168;DHT22;9716;53.114;18.040;2023-05-07T09:51:33;19.00;71.70
19168;DHT22;9716;53.114;18.040;2023-05-07T09:54:04;19.00;71.20
19168;DHT22;9716;53.114;18.040;2023-05-07T09:56:34;18.80;71.20
19168;DHT22;9716;53.114;18.040;2023-05-07T09:59:05;18.70;71.10
19168;DHT22;9716;53.114;18.040;2023-05-07T10:01:36;18.60;72.20
19168;DHT22;9716;53.114;18.040;2023-05-07T10:04:06;18.60;72.50
19168;DHT22;9716;53.114;18.040;2023-05-07T10:06:36;18.40;71.60
19168;DHT22;9716;53.114;18.040;2023-05-07T10:09:06;18.20;71.90
19168;DHT22;9716;53.114;18.040;2023-05-07T10:11:35;17.90;72.00
19168;DHT22;9716;53.114;18.040;2023-05-07T10:14:04;17.70;72.80
19168;DHT22;9716;53.114;18.040;2023-05-07T10:16:36;17.40;73.00
19168;DHT22;9716;53.114;18.040;2023-05-07T10:19:05;17.30;74.10
19168;DHT22;9716;53.114;18.040;2023-05-07T10:21:36;17.20;74.40
19168;DHT22;9716;53.114;18.040;2023-05-07T10:24:09;17.20;75.50
19168;DHT22;9716;53.114;18.040;2023-05-07T10:26:42;17.30;74.30
19168;DHT22;9716;53.114;18.040;2023-05-07T10:29:15;17.40;74.20
19168;DHT22;9716;53.114;18.040;2023-05-07T10:31:54;17.30;73.70
19168;DHT22;9716;53.114;18.040;2023-05-07T10:34:28;17.30;75.10
19168;DHT22;9716;53.114;18.040;2023-05-07T10:36:58;17.30;74.00
19168;DHT22;9716;53.114;18.040;2023-05-07T10:39:28;17.30;74.70
19168;DHT22;9716;53.114;18.040;2023-05-07T10:42:07;17.40;74.70
19168;DHT22;9716;53.114;18.040;2023-05-07T10:44:35;17.40;74.20
19168;DHT22;9716;53.114;18.040;2023-05-07T10:47:06;17.40;74.80
19168;DHT22;9716;53.114;18.040;2023-05-07T10:49:38;17.30;74.60
19168;DHT22;9716;53.114;18.040;2023-05-07T10:52:26;17.30;74.70
19168;DHT22;9716;53.114;18.040;2023-05-07T10:55:23;17.30;74.60
19168;DHT22;9716;53.114;18.040;2023-05-07T10:57:53;17.30;74.60
19168;DHT22;9716;53.114;18.040;2023-05-07T11:00:41;17.20;74.50
19168;DHT22;9716;53.114;18.040;2023-05-07T11:03:10;17.30;74.90
19168;DHT22;9716;53.114;18.040;2023-05-07T11:05:38;17.30;75.30
19168;DHT22;9716;53.114;18.040;2023-05-07T11:08:09;17.20;74.50
19168;DHT22;9716;53.114;18.040;2023-05-07T11:10:54;17.30;74.60
19168;DHT22;9716;53.114;18.040;2023-05-07T11:13:43;17.40;74.50
19168;DHT22;9716;53.114;18.040;2023-05-07T11:16:19;17.60;74.20
19168;DHT22;9716;53.114;18.040;2023-05-07T11:18:48;17.70;73.90
19168;DHT22;9716;53.114;18.040;2023-05-07T11:21:36;17.80;73.80
19168;DHT22;9716;53.114;18.040;2023-05-07T11:24:06;17.90;73.30
19168;DHT22;9716;53.114;18.040;2023-05-07T11:26:49;17.90;73.00
19168;DHT22;9716;53.114;18.040;2023-05-07T11:29:19;18.00;72.70
19168;DHT22;9716;53.114;18.040;2023-05-07T11:31:50;17.90;73.00
19168;DHT22;9716;53.114;18.040;2023-05-07T11:34:23;18.00;73.30
19168;DHT22;9716;53.114;18.040;2023-05-07T11:36:52;18.10;73.00
19168;DHT22;9716;53.114;18.040;2023-05-07T11:39:25;18.10;71.90
19168;DHT22;9716;53.114;18.040;2023-05-07T11:41:54;17.90;71.80
19168;DHT22;9716;53.114;18.040;2023-05-07T11:44:23;17.80;72.20
19168;DHT22;9716;53.114;18.040;2023-05-07T11:46:51;17.80;72.20
19168;DHT22;9716;53.114;18.040;2023-05-07T11:49:20;17.80;74.00
19168;DHT22;9716;53.114;18.040;2023-05-07T11:51:48;17.80;73.00
19168;DHT22;9716;53.114;18.040;2023-05-07T11:54:17;17.80;72.60
19168;DHT22;9716;53.114;18.040;2023-05-07T11:56:45;17.70;72.10
19168;DHT22;9716;53.114;18.040;2023-05-07T11:59:18;17.60;72.20
19168;DHT22;9716;53.114;18.040;2023-05-07T12:01:47;17.50;72.50
19168;DHT22;9716;53.114;18.040;2023-05-07T12:04:19;17.60;72.60
19168;DHT22;9716;53.114;18.040;2023-05-07T12:06:49;17.70;71.70
19168;DHT22;9716;53.114;18.040;2023-05-07T12:09:23;17.80;70.80
19168;DHT22;9716;53.114;18.040;2023-05-07T12:11:52;17.70;71.20
19168;DHT22;9716;53.114;18.040;2023-05-07T12:14:22;17.70;71.50
19168;DHT22;9716;53.114;18.040;2023-05-07T12:16:50;17.70;71.70
19168;DHT22;9716;53.114;18.040;2023-05-07T12:19:20;17.70;71.30
19168;DHT22;9716;53.114;18.040;2023-05-07T12:21:49;17.70;71.00
19168;DHT22;9716;53.114;18.040;2023-05-07T12:24:18;17.60;70.30
19168;DHT22;9716;53.114;18.040;2023-05-07T12:26:48;17.50;70.00
19168;DHT22;9716;53.114;18.040;2023-05-07T12:29:16;17.40;70.20
19168;DHT22;9716;53.114;18.040;2023-05-07T12:31:46;17.30;70.50
19168;DHT22;9716;53.114;18.040;2023-05-07T12:34:15;17.20;69.90
19168;DHT22;9716;53.114;18.040;2023-05-07T12:36:43;17.00;70.00
19168;DHT22;9716;53.114;18.040;2023-05-07T12:39:12;16.90;70.10
19168;DHT22;9716;53.114;18.040;2023-05-07T12:41:53;16.80;70.20
19168;DHT22;9716;53.114;18.040;2023-05-07T12:44:23;16.70;70.00
19168;DHT22;9716;53.114;18.040;2023-05-07T12:46:53;16.60;70.40
19168;DHT22;9716;53.114;18.040;2023-05-07T12:49:23;16.50;69.60
19168;DHT22;9716;53.114;18.040;2023-05-07T12:51:52;16.30;69.80
19168;DHT22;9716;53.114;18.040;2023-05-07T12:54:28;16.10;70.00
19168;DHT22;9716;53.114;18.040;2023-05-07T12:57:01;16.10;70.40
19168;DHT22;9716;53.114;18.040;2023-05-07T12:59:34;16.00;70.50
19168;DHT22;9716;53.114;18.040;2023-05-07T13:02:04;16.00;70.80
19168;DHT22;9716;53.114;18.040;2023-05-07T13:04:33;16.00;70.90
19168;DHT22;9716;53.114;18.040;2023-05-07T13:07:02;16.00;70.60
19168;DHT22;9716;53.114;18.040;2023-05-07T13:09:31;15.90;70.10
19168;DHT22;9716;53.114;18.040;2023-05-07T13:11:59;15.90;70.00
19168;DHT22;9716;53.114;18.040;2023-05-07T13:14:28;15.90;70.40
19168;DHT22;9716;53.114;18.040;2023-05-07T13:16:57;15.90;70.80
19168;DHT22;9716;53.114;18.040;2023-05-07T13:19:27;16.00;70.60
19168;DHT22;9716;53.114;18.040;2023-05-07T13:21:57;15.90;70.80
19168;DHT22;9716;53.114;18.040;2023-05-07T13:24:26;15.90;70.00
19168;DHT22;9716;53.114;18.040;2023-05-07T13:26:54;15.90;70.60
19168;DHT22;9716;53.114;18.040;2023-05-07T13:29:23;15.90;71.10
19168;DHT22;9716;53.114;18.040;2023-05-07T13:31:57;15.90;71.60
19168;DHT22;9716;53.114;18.040;2023-05-07T13:34:28;15.90;72.00
19168;DHT22;9716;53.114;18.040;2023-05-07T13:36:56;15.90;72.30
19168;DHT22;9716;53.114;18.040;2023-05-07T13:39:25;16.00;72.50
19168;DHT22;9716;53.114;18.040;2023-05-07T13:41:53;15.90;72.30
19168;DHT22;9716;53.114;18.040;2023-05-07T13:44:22;15.90;71.90
19168;DHT22;9716;53.114;18.040;2023-05-07T13:46:51;16.00;71.80
19168;DHT22;9716;53.114;18.040;2023-05-07T13:49:19;16.00;71.90
19168;DHT22;9716;53.114;18.040;2023-05-07T13:51:49;16.00;71.90
19168;DHT22;9716;53.114;18.040;2023-05-07T13:54:18;16.00;71.80
19168;DHT22;9716;53.114;18.040;2023-05-07T13:56:46;16.00;71.80
19168;DHT22;9716;53.114;18.040;2023-05-07T13:59:15;15.90;70.90
19168;DHT22;9716;53.114;18.040;2023-05-07T14:01:43;15.90;70.90
19168;DHT22;9716;53.114;18.040;2023-05-07T14:04:12;15.90;70.80
19168;DHT22;9716;53.114;18.040;2023-05-07T14:06:40;15.90;70.70
19168;DHT22;9716;53.114;18.040;2023-05-07T14:09:10;15.90;70.40
19168;DHT22;9716;53.114;18.040;2023-05-07T14:11:40;15.80;70.50
19168;DHT22;9716;53.114;18.040;2023-05-07T14:14:09;15.80;70.80
19168;DHT22;9716;53.114;18.040;2023-05-07T14:16:38;15.70;71.00
19168;DHT22;9716;53.114;18.040;2023-05-07T14:19:07;15.60;71.40
19168;DHT22;9716;53.114;18.040;2023-05-07T14:21:35;15.60;71.70
19168;DHT22;9716;53.114;18.040;2023-05-07T14:24:06;15.50;71.60
19168;DHT22;9716;53.114;18.040;2023-05-07T14:26:36;15.50;71.60
19168;DHT22;9716;53.114;18.040;2023-05-07T14:29:04;15.50;71.80
19168;DHT22;9716;53.114;18.040;2023-05-07T14:31:33;15.50;72.00
19168;DHT22;9716;53.114;18.040;2023-05-07T14:34:01;15.60;71.70
19168;DHT22;9716;53.114;18.040;2023-05-07T14:36:30;15.60;71.10
19168;DHT22;9716;53.114;18.040;2023-05-07T14:38:59;15.60;70.80
19168;DHT22;9716;53.114;18.040;2023-05-07T14:41:27;15.60;71.00
19168;DHT22;9716;53.114;18.040;2023-05-07T14:43:57;15.70;71.20
19168;DHT22;9716;53.114;18.040;2023-05-07T14:46:26;15.70;71.20
19168;DHT22;9716;53.114;18.040;2023-05-07T14:48:54;15.60;71.00
19168;DHT22;9716;53.114;18.040;2023-05-07T14:51:23;15.70;70.70
19168;DHT22;9716;53.114;18.040;2023-05-07T14:53:53;15.60;70.20
19168;DHT22;9716;53.114;18.040;2023-05-07T14:56:21;15.60;70.40
19168;DHT22;9716;53.114;18.040;2023-05-07T14:58:50;15.60;70.40
19168;DHT22;9716;53.114;18.040;2023-05-07T15:01:20;15.60;70.30
19168;DHT22;9716;53.114;18.040;2023-05-07T15:03:49;15.60;70.60
19168;DHT22;9716;53.114;18.040;2023-05-07T15:06:17;15.50;70.50
19168;DHT22;9716;53.114;18.040;2023-05-07T15:08:46;15.60;70.50
19168;DHT22;9716;53.114;18.040;2023-05-07T15:11:15;15.60;70.30
19168;DHT22;9716;53.114;18.040;2023-05-07T15:13:44;15.50;70.20
19168;DHT22;9716;53.114;18.040;2023-05-07T15:16:12;15.50;70.20
19168;DHT22;9716;53.114;18.040;2023-05-07T15:18:43;15.50;70.50
19168;DHT22;9716;53.114;18.040;2023-05-07T15:21:11;15.50;70.80
19168;DHT22;9716;53.114;18.040;2023-05-07T15:23:40;15.50;70.60
19168;DHT22;9716;53.114;18.040;2023-05-07T15:26:09;15.50;70.60
19168;DHT22;9716;53.114;18.040;2023-05-07T15:28:38;15.40;70.70
19168;DHT22;9716;53.114;18.040;2023-05-07T15:31:06;15.40;70.70
19168;DHT22;9716;53.114;18.040;2023-05-07T15:33:36;15.30;70.70
19168;DHT22;9716;53.114;18.040;2023-05-07T15:36:06;15.30;71.00
19168;DHT22;9716;53.114;18.040;2023-05-07T15:38:35;15.30;71.30
19168;DHT22;9716;53.114;18.040;2023-05-07T15:41:03;15.20;71.30
19168;DHT22;9716;53.114;18.040;2023-05-07T15:43:32;15.20;71.50
19168;DHT22;9716;53.114;18.040;2023-05-07T15:46:00;15.20;72.00
19168;DHT22;9716;53.114;18.040;2023-05-07T15:48:29;15.10;72.00
19168;DHT22;9716;53.114;18.040;2023-05-07T15:50:58;15.20;72.20